sensor_id;sensor_type;location;lat;lon;timestamp;pressure;altitude;pressure_sealevel;temperature;humidity
74915;BME280;63475;45.140;-75.616;2023-09-18T00:00:58;100187.66;;;20.15;57.80
74915;BME280;63475;45.140;-75.616;2023-09-18T00:03:04;100178.88;;;20.13;57.94
74915;BME280;63475;45.140;-75.616;2023-09-18T00:05:07;100164.34;;;20.06;58.18
74915;BME280;63475;45.140;-75.616;2023-09-18T00:07:10;100164.53;;;20.04;58.12
74915;BME280;63475;45.140;-75.616;2023-09-18T00:09:13;100159.47;;;20.01;58.28
74915;BME280;63475;45.140;-75.616;2023-09-18T00:11:23;100156.94;;;19.99;58.30
74915;BME280;63475;45.140;-75.616;2023-09-18T00:13:26;100168.34;;;19.95;58.41
74915;BME280;63475;45.140;-75.616;2023-09-18T00:15:28;100180.84;;;19.96;58.34
74915;BME280;63475;45.140;-75.616;2023-09-18T00:17:35;100193.91;;;19.92;58.79
74915;BME280;63475;45.140;-75.616;2023-09-18T00:19:43;100180.91;;;19.88;58.98
74915;BME280;63475;45.140;-75.616;2023-09-18T00:21:45;100191.06;;;19.86;58.91
74915;BME280;63475;45.140;-75.616;2023-09-18T00:23:48;100190.75;;;19.81;59.16
74915;BME280;63475;45.140;-75.616;2023-09-18T00:25:51;100199.88;;;19.80;59.08
74915;BME280;63475;45.140;-75.616;2023-09-18T00:27:53;100197.34;;;19.78;58.76
74915;BME280;63475;45.140;-75.616;2023-09-18T00:29:56;100195.56;;;19.71;59.22
74915;BME280;63475;45.140;-75.616;2023-09-18T00:31:59;100208.91;;;19.72;58.96
74915;BME280;63475;45.140;-75.616;2023-09-18T00:34:02;100200.81;;;19.64;59.26
74915;BME280;63475;45.140;-75.616;2023-09-18T00:36:04;100200.97;;;19.62;59.30
74915;BME280;63475;45.140;-75.616;2023-09-18T00:38:07;100208.44;;;19.60;59.53
74915;BME280;63475;45.140;-75.616;2023-09-18T00:40:10;100199.47;;;19.60;59.67
74915;BME280;63475;45.140;-75.616;2023-09-18T00:42:15;100198.31;;;19.54;59.50
74915;BME280;63475;45.140;-75.616;2023-09-18T00:44:20;100196.63;;;19.53;59.79
74915;BME280;63475;45.140;-75.616;2023-09-18T00:46:24;100202.19;;;19.52;60.00
74915;BME280;63475;45.140;-75.616;2023-09-18T00:48:27;100207.16;;;19.48;60.11
74915;BME280;63475;45.140;-75.616;2023-09-18T00:50:31;100202.94;;;19.46;60.07
74915;BME280;63475;45.140;-75.616;2023-09-18T00:52:34;100201.75;;;19.40;59.78
74915;BME280;63475;45.140;-75.616;2023-09-18T00:54:37;100214.94;;;19.43;59.83
74915;BME280;63475;45.140;-75.616;2023-09-18T00:56:41;100202.09;;;19.37;60.14
74915;BME280;63475;45.140;-75.616;2023-09-18T00:58:45;100206.19;;;19.33;60.03
74915;BME280;63475;45.140;-75.616;2023-09-18T01:00:48;100203.47;;;19.33;60.40
74915;BME280;63475;45.140;-75.616;2023-09-18T01:02:53;100206.34;;;19.31;60.45
74915;BME280;63475;45.140;-75.616;2023-09-18T01:04:56;100204.84;;;19.29;60.47
74915;BME280;63475;45.140;-75.616;2023-09-18T01:06:59;100200.47;;;19.28;60.85
74915;BME280;63475;45.140;-75.616;2023-09-18T01:09:05;100192.03;;;19.23;60.94
74915;BME280;63475;45.140;-75.616;2023-09-18T01:11:28;100192.88;;;19.23;60.87
74915;BME280;63475;45.140;-75.616;2023-09-18T01:13:41;100193.41;;;19.19;60.92
74915;BME280;63475;45.140;-75.616;2023-09-18T01:16:10;100198.13;;;19.17;61.04
74915;BME280;63475;45.140;-75.616;2023-09-18T01:18:17;100199.50;;;19.13;61.23
74915;BME280;63475;45.140;-75.616;2023-09-18T01:20:20;100199.00;;;19.09;61.40
74915;BME280;63475;45.140;-75.616;2023-09-18T01:22:23;100203.56;;;19.09;61.76
74915;BME280;63475;45.140;-75.616;2023-09-18T01:24:25;100194.97;;;19.05;61.71
74915;BME280;63475;45.140;-75.616;2023-09-18T01:26:28;100197.84;;;19.04;61.79
74915;BME280;63475;45.140;-75.616;2023-09-18T01:28:31;100191.78;;;19.02;62.10
74915;BME280;63475;45.140;-75.616;2023-09-18T01:30:33;100189.41;;;18.98;61.82
74915;BME280;63475;45.140;-75.616;2023-09-18T01:32:37;100185.19;;;18.96;61.91
74915;BME280;63475;45.140;-75.616;2023-09-18T01:34:48;100184.34;;;18.95;61.86
74915;BME280;63475;45.140;-75.616;2023-09-18T01:36:52;100181.13;;;18.92;62.07
74915;BME280;63475;45.140;-75.616;2023-09-18T01:38:55;100176.25;;;18.87;62.05
74915;BME280;63475;45.140;-75.616;2023-09-18T01:40:58;100179.94;;;18.86;62.03
74915;BME280;63475;45.140;-75.616;2023-09-18T01:43:00;100177.25;;;18.78;62.28
74915;BME280;63475;45.140;-75.616;2023-09-18T01:45:03;100177.78;;;18.82;62.26
74915;BME280;63475;45.140;-75.616;2023-09-18T01:47:09;100189.75;;;18.79;62.36
74915;BME280;63475;45.140;-75.616;2023-09-18T01:49:13;100182.84;;;18.77;62.32
74915;BME280;63475;45.140;-75.616;2023-09-18T01:51:16;100173.38;;;18.73;62.49
74915;BME280;63475;45.140;-75.616;2023-09-18T01:53:18;100179.97;;;18.70;62.29
74915;BME280;63475;45.140;-75.616;2023-09-18T01:55:21;100179.28;;;18.68;62.56
74915;BME280;63475;45.140;-75.616;2023-09-18T01:57:24;100169.84;;;18.64;62.61
74915;BME280;63475;45.140;-75.616;2023-09-18T01:59:26;100171.69;;;18.63;62.90
74915;BME280;63475;45.140;-75.616;2023-09-18T02:01:30;100177.28;;;18.62;62.65
74915;BME280;63475;45.140;-75.616;2023-09-18T02:03:35;100176.81;;;18.58;62.90
74915;BME280;63475;45.140;-75.616;2023-09-18T02:05:58;100164.81;;;18.53;62.93
74915;BME280;63475;45.140;-75.616;2023-09-18T02:08:01;100164.81;;;18.53;63.17
74915;BME280;63475;45.140;-75.616;2023-09-18T02:10:05;100168.03;;;18.48;63.62
74915;BME280;63475;45.140;-75.616;2023-09-18T02:12:08;100157.38;;;18.47;63.67
74915;BME280;63475;45.140;-75.616;2023-09-18T02:14:11;100162.09;;;18.45;63.76
74915;BME280;63475;45.140;-75.616;2023-09-18T02:16:14;100151.63;;;18.42;63.82
74915;BME280;63475;45.140;-75.616;2023-09-18T02:18:16;100156.72;;;18.37;63.88
74915;BME280;63475;45.140;-75.616;2023-09-18T02:20:19;100166.53;;;18.38;63.74
74915;BME280;63475;45.140;-75.616;2023-09-18T02:22:22;100169.56;;;18.35;63.82
74915;BME280;63475;45.140;-75.616;2023-09-18T02:24:25;100172.59;;;18.32;63.83
74915;BME280;63475;45.140;-75.616;2023-09-18T02:26:28;100176.97;;;18.33;64.06
74915;BME280;63475;45.140;-75.616;2023-09-18T02:28:30;100162.28;;;18.27;63.93
74915;BME280;63475;45.140;-75.616;2023-09-18T02:30:33;100167.03;;;18.25;64.25
74915;BME280;63475;45.140;-75.616;2023-09-18T02:32:36;100165.16;;;18.25;64.29
74915;BME280;63475;45.140;-75.616;2023-09-18T02:34:39;100161.78;;;18.23;64.55
74915;BME280;63475;45.140;-75.616;2023-09-18T02:36:42;100170.22;;;18.20;64.66
74915;BME280;63475;45.140;-75.616;2023-09-18T02:38:45;100170.56;;;18.17;64.80
74915;BME280;63475;45.140;-75.616;2023-09-18T02:40:47;100162.13;;;18.12;65.00
74915;BME280;63475;45.140;-75.616;2023-09-18T02:42:50;100162.31;;;18.11;65.22
74915;BME280;63475;45.140;-75.616;2023-09-18T02:44:52;100151.84;;;18.08;65.18
74915;BME280;63475;45.140;-75.616;2023-09-18T02:46:55;100154.69;;;18.06;65.48
74915;BME280;63475;45.140;-75.616;2023-09-18T02:48:58;100151.16;;;18.06;65.73
74915;BME280;63475;45.140;-75.616;2023-09-18T02:51:01;100147.09;;;18.02;65.42
74915;BME280;63475;45.140;-75.616;2023-09-18T02:53:06;100152.50;;;18.02;65.78
74915;BME280;63475;45.140;-75.616;2023-09-18T02:55:10;100154.50;;;18.00;66.04
74915;BME280;63475;45.140;-75.616;2023-09-18T02:57:13;100147.56;;;17.97;65.90
74915;BME280;63475;45.140;-75.616;2023-09-18T02:59:16;100148.56;;;17.96;66.12
74915;BME280;63475;45.140;-75.616;2023-09-18T03:01:18;100150.59;;;17.94;66.17
74915;BME280;63475;45.140;-75.616;2023-09-18T03:03:21;100143.88;;;17.90;66.19
74915;BME280;63475;45.140;-75.616;2023-09-18T03:05:23;100154.00;;;17.88;66.21
74915;BME280;63475;45.140;-75.616;2023-09-18T03:07:26;100152.31;;;17.87;66.44
74915;BME280;63475;45.140;-75.616;2023-09-18T03:09:31;100146.22;;;17.85;66.28
74915;BME280;63475;45.140;-75.616;2023-09-18T03:11:34;100157.34;;;17.82;66.41
74915;BME280;63475;45.140;-75.616;2023-09-18T03:13:43;100153.81;;;17.81;66.39
74915;BME280;63475;45.140;-75.616;2023-09-18T03:15:47;100152.28;;;17.79;66.43
74915;BME280;63475;45.140;-75.616;2023-09-18T03:17:50;100149.22;;;17.74;66.94
74915;BME280;63475;45.140;-75.616;2023-09-18T03:19:53;100153.28;;;17.70;66.70
74915;BME280;63475;45.140;-75.616;2023-09-18T03:21:55;100149.22;;;17.66;66.82
74915;BME280;63475;45.140;-75.616;2023-09-18T03:23:59;100148.56;;;17.63;66.97
74915;BME280;63475;45.140;-75.616;2023-09-18T03:26:02;100144.84;;;17.65;67.05
74915;BME280;63475;45.140;-75.616;2023-09-18T03:28:04;100141.47;;;17.62;67.10
74915;BME280;63475;45.140;-75.616;2023-09-18T03:30:08;100141.13;;;17.57;67.35
74915;BME280;63475;45.140;-75.616;2023-09-18T03:32:10;100141.13;;;17.57;67.32
74915;BME280;63475;45.140;-75.616;2023-09-18T03:34:14;100139.75;;;17.53;67.65
74915;BME280;63475;45.140;-75.616;2023-09-18T03:36:17;100133.00;;;17.49;67.48
74915;BME280;63475;45.140;-75.616;2023-09-18T03:38:19;100136.03;;;17.46;67.44
74915;BME280;63475;45.140;-75.616;2023-09-18T03:40:23;100126.59;;;17.42;67.70
74915;BME280;63475;45.140;-75.616;2023-09-18T03:42:26;100140.91;;;17.43;67.65
74915;BME280;63475;45.140;-75.616;2023-09-18T03:44:28;100135.69;;;17.41;67.33
74915;BME280;63475;45.140;-75.616;2023-09-18T03:46:31;100124.88;;;17.33;67.55
74915;BME280;63475;45.140;-75.616;2023-09-18T03:48:34;100129.94;;;17.36;67.49
74915;BME280;63475;45.140;-75.616;2023-09-18T03:50:39;100129.56;;;17.31;67.73
74915;BME280;63475;45.140;-75.616;2023-09-18T03:52:42;100120.81;;;17.29;67.61
74915;BME280;63475;45.140;-75.616;2023-09-18T03:54:45;100125.50;;;17.27;67.81
74915;BME280;63475;45.140;-75.616;2023-09-18T03:56:47;100127.56;;;17.25;67.84
74915;BME280;63475;45.140;-75.616;2023-09-18T03:58:50;100128.72;;;17.22;68.19
74915;BME280;63475;45.140;-75.616;2023-09-18T04:00:54;100126.72;;;17.24;68.13
74915;BME280;63475;45.140;-75.616;2023-09-18T04:02:57;100125.34;;;17.20;67.97
74915;BME280;63475;45.140;-75.616;2023-09-18T04:05:00;100118.09;;;17.21;68.02
74915;BME280;63475;45.140;-75.616;2023-09-18T04:07:05;100119.09;;;17.20;68.24
74915;BME280;63475;45.140;-75.616;2023-09-18T04:09:08;100122.13;;;17.17;68.28
74915;BME280;63475;45.140;-75.616;2023-09-18T04:11:11;100120.59;;;17.14;68.15
74915;BME280;63475;45.140;-75.616;2023-09-18T04:13:14;100126.16;;;17.13;68.28
74915;BME280;63475;45.140;-75.616;2023-09-18T04:15:17;100126.84;;;17.15;68.20
74915;BME280;63475;45.140;-75.616;2023-09-18T04:17:21;100115.69;;;17.10;67.94
74915;BME280;63475;45.140;-75.616;2023-09-18T04:19:24;100118.38;;;17.10;68.02
74915;BME280;63475;45.140;-75.616;2023-09-18T04:21:26;100121.22;;;17.08;68.92
74915;BME280;63475;45.140;-75.616;2023-09-18T04:23:29;100121.38;;;17.07;69.09
74915;BME280;63475;45.140;-75.616;2023-09-18T04:25:32;100107.38;;;17.03;68.86
74915;BME280;63475;45.140;-75.616;2023-09-18T04:27:35;100112.94;;;17.02;69.10
74915;BME280;63475;45.140;-75.616;2023-09-18T04:29:37;100122.69;;;17.03;69.27
74915;BME280;63475;45.140;-75.616;2023-09-18T04:31:40;100112.94;;;17.02;69.66
74915;BME280;63475;45.140;-75.616;2023-09-18T04:33:42;100104.88;;;17.02;69.60
74915;BME280;63475;45.140;-75.616;2023-09-18T04:35:45;100097.09;;;16.99;69.82
74915;BME280;63475;45.140;-75.616;2023-09-18T04:37:48;100095.41;;;16.98;69.41
74915;BME280;63475;45.140;-75.616;2023-09-18T04:39:51;100102.97;;;16.94;69.57
74915;BME280;63475;45.140;-75.616;2023-09-18T04:41:53;100113.59;;;16.95;69.75
74915;BME280;63475;45.140;-75.616;2023-09-18T04:43:56;100087.97;;;16.91;70.27
74915;BME280;63475;45.140;-75.616;2023-09-18T04:45:58;100087.97;;;16.91;70.02
74915;BME280;63475;45.140;-75.616;2023-09-18T04:48:01;100072.13;;;16.88;70.33
74915;BME280;63475;45.140;-75.616;2023-09-18T04:50:04;100058.28;;;16.83;70.05
74915;BME280;63475;45.140;-75.616;2023-09-18T04:52:12;100067.06;;;16.85;70.08
74915;BME280;63475;45.140;-75.616;2023-09-18T04:54:15;100069.91;;;16.84;69.94
74915;BME280;63475;45.140;-75.616;2023-09-18T04:56:17;100070.06;;;16.82;69.61
74915;BME280;63475;45.140;-75.616;2023-09-18T04:58:20;100071.75;;;16.83;70.10
74915;BME280;63475;45.140;-75.616;2023-09-18T05:00:23;100069.38;;;16.80;69.66
74915;BME280;63475;45.140;-75.616;2023-09-18T05:02:27;100076.66;;;16.80;69.59
74915;BME280;63475;45.140;-75.616;2023-09-18T05:04:30;100081.00;;;16.81;69.60
74915;BME280;63475;45.140;-75.616;2023-09-18T05:06:32;100075.81;;;16.79;70.29
74915;BME280;63475;45.140;-75.616;2023-09-18T05:08:35;100088.59;;;16.77;69.85
74915;BME280;63475;45.140;-75.616;2023-09-18T05:10:37;100101.72;;;16.80;69.84
74915;BME280;63475;45.140;-75.616;2023-09-18T05:12:40;100096.69;;;16.77;70.13
74915;BME280;63475;45.140;-75.616;2023-09-18T05:14:43;100095.00;;;16.76;70.03
74915;BME280;63475;45.140;-75.616;2023-09-18T05:16:46;100095.81;;;16.77;69.90
74915;BME280;63475;45.140;-75.616;2023-09-18T05:18:49;100088.91;;;16.74;69.89
74915;BME280;63475;45.140;-75.616;2023-09-18T05:20:52;100088.22;;;16.72;70.28
74915;BME280;63475;45.140;-75.616;2023-09-18T05:22:56;100086.53;;;16.71;70.64
74915;BME280;63475;45.140;-75.616;2023-09-18T05:24:59;100089.91;;;16.73;70.20
74915;BME280;63475;45.140;-75.616;2023-09-18T05:27:02;100081.31;;;16.70;70.86
74915;BME280;63475;45.140;-75.616;2023-09-18T05:29:05;100083.16;;;16.69;70.41
74915;BME280;63475;45.140;-75.616;2023-09-18T05:31:07;100084.16;;;16.68;70.75
74915;BME280;63475;45.140;-75.616;2023-09-18T05:33:10;100084.47;;;16.65;71.05
74915;BME280;63475;45.140;-75.616;2023-09-18T05:35:13;100081.78;;;16.65;70.97
74915;BME280;63475;45.140;-75.616;2023-09-18T05:37:16;100073.88;;;16.64;71.20
74915;BME280;63475;45.140;-75.616;2023-09-18T05:39:19;100073.19;;;16.61;71.19
74915;BME280;63475;45.140;-75.616;2023-09-18T05:41:22;100068.97;;;16.59;71.40
74915;BME280;63475;45.140;-75.616;2023-09-18T05:43:28;100084.09;;;16.60;71.15
74915;BME280;63475;45.140;-75.616;2023-09-18T05:45:31;100083.25;;;16.59;71.69
74915;BME280;63475;45.140;-75.616;2023-09-18T05:47:35;100083.59;;;16.56;70.92
74915;BME280;63475;45.140;-75.616;2023-09-18T05:49:39;100086.47;;;16.55;70.85
74915;BME280;63475;45.140;-75.616;2023-09-18T05:51:42;100091.00;;;16.54;70.82
74915;BME280;63475;45.140;-75.616;2023-09-18T05:53:45;100077.47;;;16.46;70.89
74915;BME280;63475;45.140;-75.616;2023-09-18T05:55:48;100087.78;;;16.51;70.83
74915;BME280;63475;45.140;-75.616;2023-09-18T05:57:50;100100.56;;;16.49;70.80
74915;BME280;63475;45.140;-75.616;2023-09-18T05:59:57;100090.41;;;16.43;71.11
74915;BME280;63475;45.140;-75.616;2023-09-18T06:02:00;100094.47;;;16.47;71.75
74915;BME280;63475;45.140;-75.616;2023-09-18T06:04:02;100095.31;;;16.47;71.55
74915;BME280;63475;45.140;-75.616;2023-09-18T06:06:06;100074.94;;;16.45;71.22
74915;BME280;63475;45.140;-75.616;2023-09-18T06:08:08;100080.34;;;16.45;71.19
74915;BME280;63475;45.140;-75.616;2023-09-18T06:10:11;100074.41;;;16.41;71.38
74915;BME280;63475;45.140;-75.616;2023-09-18T06:12:14;100065.66;;;16.39;71.27
74915;BME280;63475;45.140;-75.616;2023-09-18T06:14:16;100071.34;;;16.36;71.01
74915;BME280;63475;45.140;-75.616;2023-09-18T06:16:19;100082.66;;;16.40;71.00
74915;BME280;63475;45.140;-75.616;2023-09-18T06:18:22;100072.19;;;16.37;71.32
74915;BME280;63475;45.140;-75.616;2023-09-18T06:20:25;100092.03;;;16.36;71.30
74915;BME280;63475;45.140;-75.616;2023-09-18T06:22:28;100088.69;;;16.34;71.70
74915;BME280;63475;45.140;-75.616;2023-09-18T06:24:30;100084.63;;;16.30;71.72
74915;BME280;63475;45.140;-75.616;2023-09-18T06:26:33;100080.25;;;16.29;71.35
74915;BME280;63475;45.140;-75.616;2023-09-18T06:28:35;100079.56;;;16.26;71.44
74915;BME280;63475;45.140;-75.616;2023-09-18T06:30:38;100074.78;;;16.20;71.89
74915;BME280;63475;45.140;-75.616;2023-09-18T06:32:41;100078.31;;;16.21;71.62
74915;BME280;63475;45.140;-75.616;2023-09-18T06:34:43;100068.72;;;16.18;72.06
74915;BME280;63475;45.140;-75.616;2023-09-18T06:36:46;100068.19;;;16.15;72.11
74915;BME280;63475;45.140;-75.616;2023-09-18T06:38:49;100069.03;;;16.15;72.42
74915;BME280;63475;45.140;-75.616;2023-09-18T06:40:52;100072.72;;;16.14;72.19
74915;BME280;63475;45.140;-75.616;2023-09-18T06:42:58;100063.13;;;16.12;72.25
74915;BME280;63475;45.140;-75.616;2023-09-18T06:45:02;100056.81;;;16.03;72.47
74915;BME280;63475;45.140;-75.616;2023-09-18T06:47:05;100065.44;;;16.07;72.34
74915;BME280;63475;45.140;-75.616;2023-09-18T06:49:07;100061.88;;;16.06;72.00
74915;BME280;63475;45.140;-75.616;2023-09-18T06:51:10;100066.28;;;16.07;72.66
74915;BME280;63475;45.140;-75.616;2023-09-18T06:53:12;100064.59;;;16.06;72.60
74915;BME280;63475;45.140;-75.616;2023-09-18T06:55:15;100060.50;;;16.02;72.44
74915;BME280;63475;45.140;-75.616;2023-09-18T06:57:19;100065.03;;;16.02;72.65
74915;BME280;63475;45.140;-75.616;2023-09-18T06:59:23;100069.19;;;15.96;72.77
74915;BME280;63475;45.140;-75.616;2023-09-18T07:01:30;100059.44;;;15.95;72.39
74915;BME280;63475;45.140;-75.616;2023-09-18T07:03:33;100051.53;;;15.93;72.52
74915;BME280;63475;45.140;-75.616;2023-09-18T07:05:40;100057.06;;;15.92;72.75
74915;BME280;63475;45.140;-75.616;2023-09-18T07:07:42;100034.13;;;15.80;73.01
74915;BME280;63475;45.140;-75.616;2023-09-18T07:09:45;100048.63;;;15.87;72.59
74915;BME280;63475;45.140;-75.616;2023-09-18T07:12:05;100038.19;;;15.84;73.03
74915;BME280;63475;45.140;-75.616;2023-09-18T07:14:08;100050.63;;;15.85;73.16
74915;BME280;63475;45.140;-75.616;2023-09-18T07:16:11;100051.25;;;15.79;72.80
74915;BME280;63475;45.140;-75.616;2023-09-18T07:18:14;100050.56;;;15.77;72.74
74915;BME280;63475;45.140;-75.616;2023-09-18T07:20:16;100047.88;;;15.77;72.90
74915;BME280;63475;45.140;-75.616;2023-09-18T07:22:20;100041.09;;;15.73;72.87
74915;BME280;63475;45.140;-75.616;2023-09-18T07:24:24;100039.13;;;15.75;73.11
74915;BME280;63475;45.140;-75.616;2023-09-18T07:26:27;100036.72;;;15.72;73.14
74915;BME280;63475;45.140;-75.616;2023-09-18T07:28:30;100045.09;;;15.69;73.20
74915;BME280;63475;45.140;-75.616;2023-09-18T07:30:33;100052.81;;;15.64;74.09
74915;BME280;63475;45.140;-75.616;2023-09-18T07:32:39;100067.09;;;15.64;73.64
74915;BME280;63475;45.140;-75.616;2023-09-18T07:34:42;100062.88;;;15.62;73.38
74915;BME280;63475;45.140;-75.616;2023-09-18T07:36:44;100062.19;;;15.59;73.74
74915;BME280;63475;45.140;-75.616;2023-09-18T07:38:47;100070.09;;;15.61;74.63
74915;BME280;63475;45.140;-75.616;2023-09-18T07:40:49;100069.56;;;15.57;74.13
74915;BME280;63475;45.140;-75.616;2023-09-18T07:42:53;100070.41;;;15.58;74.22
74915;BME280;63475;45.140;-75.616;2023-09-18T07:44:55;100065.63;;;15.52;73.69
74915;BME280;63475;45.140;-75.616;2023-09-18T07:47:00;100064.94;;;15.50;73.86
74915;BME280;63475;45.140;-75.616;2023-09-18T07:49:03;100060.72;;;15.47;73.46
74915;BME280;63475;45.140;-75.616;2023-09-18T07:51:06;100042.53;;;15.41;73.97
74915;BME280;63475;45.140;-75.616;2023-09-18T07:53:08;100036.47;;;15.39;73.57
74915;BME280;63475;45.140;-75.616;2023-09-18T07:55:11;100042.53;;;15.41;73.79
74915;BME280;63475;45.140;-75.616;2023-09-18T07:57:15;100050.75;;;15.40;73.94
74915;BME280;63475;45.140;-75.616;2023-09-18T07:59:18;100048.22;;;15.38;74.59
74915;BME280;63475;45.140;-75.616;2023-09-18T08:01:20;100043.13;;;15.35;74.61
74915;BME280;63475;45.140;-75.616;2023-09-18T08:03:25;100038.47;;;15.37;73.82
74915;BME280;63475;45.140;-75.616;2023-09-18T08:05:28;100034.38;;;15.33;73.47
74915;BME280;63475;45.140;-75.616;2023-09-18T08:07:32;100026.78;;;15.29;73.80
74915;BME280;63475;45.140;-75.616;2023-09-18T08:09:35;100027.75;;;15.28;73.95
74915;BME280;63475;45.140;-75.616;2023-09-18T08:11:41;100031.31;;;15.28;73.99
74915;BME280;63475;45.140;-75.616;2023-09-18T08:13:48;100028.56;;;15.20;73.99
74915;BME280;63475;45.140;-75.616;2023-09-18T08:15:51;100041.97;;;15.20;74.29
74915;BME280;63475;45.140;-75.616;2023-09-18T08:17:55;100049.19;;;15.19;74.38
74915;BME280;63475;45.140;-75.616;2023-09-18T08:19:57;100036.38;;;15.13;74.93
74915;BME280;63475;45.140;-75.616;2023-09-18T08:22:00;100026.72;;;15.11;74.81
74915;BME280;63475;45.140;-75.616;2023-09-18T08:24:06;100027.72;;;15.10;74.81
74915;BME280;63475;45.140;-75.616;2023-09-18T08:26:08;100026.34;;;15.06;74.76
74915;BME280;63475;45.140;-75.616;2023-09-18T08:28:11;100021.41;;;15.01;74.96
74915;BME280;63475;45.140;-75.616;2023-09-18T08:30:14;100019.72;;;15.00;75.17
74915;BME280;63475;45.140;-75.616;2023-09-18T08:32:17;100016.53;;;14.97;75.30
74915;BME280;63475;45.140;-75.616;2023-09-18T08:34:23;100017.81;;;14.92;75.05
74915;BME280;63475;45.140;-75.616;2023-09-18T08:36:28;100032.94;;;14.94;75.12
74915;BME280;63475;45.140;-75.616;2023-09-18T08:38:32;100019.94;;;14.89;75.17
74915;BME280;63475;45.140;-75.616;2023-09-18T08:40:35;100014.88;;;14.86;75.25
74915;BME280;63475;45.140;-75.616;2023-09-18T08:42:40;100019.41;;;14.85;75.46
74915;BME280;63475;45.140;-75.616;2023-09-18T08:44:45;100008.97;;;14.82;75.61
74915;BME280;63475;45.140;-75.616;2023-09-18T08:46:51;100008.25;;;14.80;75.16
74915;BME280;63475;45.140;-75.616;2023-09-18T08:48:54;100014.47;;;14.81;75.29
74915;BME280;63475;45.140;-75.616;2023-09-18T08:50:57;100010.09;;;14.80;75.06
74915;BME280;63475;45.140;-75.616;2023-09-18T08:53:01;100004.22;;;14.76;75.58
74915;BME280;63475;45.140;-75.616;2023-09-18T08:55:07;100014.94;;;14.76;75.45
74915;BME280;63475;45.140;-75.616;2023-09-18T08:57:11;100013.41;;;14.74;75.57
74915;BME280;63475;45.140;-75.616;2023-09-18T08:59:15;100027.34;;;14.77;75.53
74915;BME280;63475;45.140;-75.616;2023-09-18T09:01:17;100039.94;;;14.77;75.73
74915;BME280;63475;45.140;-75.616;2023-09-18T09:03:21;100015.94;;;14.75;75.36
74915;BME280;63475;45.140;-75.616;2023-09-18T09:05:25;100010.88;;;14.72;75.29
74915;BME280;63475;45.140;-75.616;2023-09-18T09:07:28;100011.88;;;14.71;75.34
74915;BME280;63475;45.140;-75.616;2023-09-18T09:09:33;100010.19;;;14.70;75.18
74915;BME280;63475;45.140;-75.616;2023-09-18T09:11:36;100002.41;;;14.67;75.42
74915;BME280;63475;45.140;-75.616;2023-09-18T09:13:39;100014.16;;;14.66;75.51
74915;BME280;63475;45.140;-75.616;2023-09-18T09:15:47;100015.97;;;14.66;75.38
74915;BME280;63475;45.140;-75.616;2023-09-18T09:18:02;100010.91;;;14.63;75.50
74915;BME280;63475;45.140;-75.616;2023-09-18T09:20:12;100019.09;;;14.61;75.61
74915;BME280;63475;45.140;-75.616;2023-09-18T09:22:21;100020.09;;;14.60;75.50
74915;BME280;63475;45.140;-75.616;2023-09-18T09:24:42;100018.69;;;14.56;75.75
74915;BME280;63475;45.140;-75.616;2023-09-18T09:26:57;100032.13;;;14.56;76.04
74915;BME280;63475;45.140;-75.616;2023-09-18T09:29:18;100043.19;;;14.53;76.33
74915;BME280;63475;45.140;-75.616;2023-09-18T09:31:28;100041.63;;;14.50;76.17
74915;BME280;63475;45.140;-75.616;2023-09-18T09:33:31;100035.72;;;14.47;76.31
74915;BME280;63475;45.140;-75.616;2023-09-18T09:35:36;100028.81;;;14.44;76.36
74915;BME280;63475;45.140;-75.616;2023-09-18T09:37:39;100026.97;;;14.45;76.34
74915;BME280;63475;45.140;-75.616;2023-09-18T09:39:51;100034.03;;;14.46;77.05
74915;BME280;63475;45.140;-75.616;2023-09-18T09:41:54;100027.25;;;14.42;76.98
74915;BME280;63475;45.140;-75.616;2023-09-18T09:43:58;100036.84;;;14.44;77.09
74915;BME280;63475;45.140;-75.616;2023-09-18T09:46:01;100035.31;;;14.42;77.13
74915;BME280;63475;45.140;-75.616;2023-09-18T09:48:05;100026.41;;;14.41;77.46
74915;BME280;63475;45.140;-75.616;2023-09-18T09:50:14;100022.03;;;14.40;77.61
74915;BME280;63475;45.140;-75.616;2023-09-18T09:52:18;100028.25;;;14.41;77.59
74915;BME280;63475;45.140;-75.616;2023-09-18T09:54:34;100028.53;;;14.38;77.45
74915;BME280;63475;45.140;-75.616;2023-09-18T09:56:44;100023.16;;;14.38;77.64
74915;BME280;63475;45.140;-75.616;2023-09-18T09:59:07;100032.91;;;14.39;77.74
74915;BME280;63475;45.140;-75.616;2023-09-18T10:01:12;100038.28;;;14.39;77.67
74915;BME280;63475;45.140;-75.616;2023-09-18T10:03:20;100029.53;;;14.37;77.44
74915;BME280;63475;45.140;-75.616;2023-09-18T10:05:26;100037.16;;;14.32;77.55
74915;BME280;63475;45.140;-75.616;2023-09-18T10:07:31;100047.09;;;14.31;77.54
74915;BME280;63475;45.140;-75.616;2023-09-18T10:09:41;100041.72;;;14.31;77.56
74915;BME280;63475;45.140;-75.616;2023-09-18T10:11:46;100039.31;;;14.28;77.41
74915;BME280;63475;45.140;-75.616;2023-09-18T10:13:58;100039.19;;;14.30;77.76
74915;BME280;63475;45.140;-75.616;2023-09-18T10:16:04;100038.34;;;14.29;77.50
74915;BME280;63475;45.140;-75.616;2023-09-18T10:18:19;100036.78;;;14.27;77.10
74915;BME280;63475;45.140;-75.616;2023-09-18T10:20:26;100032.41;;;14.26;77.21
74915;BME280;63475;45.140;-75.616;2023-09-18T10:22:39;100035.78;;;14.28;77.12
74915;BME280;63475;45.140;-75.616;2023-09-18T10:24:46;100036.09;;;14.25;77.10
74915;BME280;63475;45.140;-75.616;2023-09-18T10:26:59;100035.53;;;14.21;76.33
74915;BME280;63475;45.140;-75.616;2023-09-18T10:29:03;100038.34;;;14.19;76.94
74915;BME280;63475;45.140;-75.616;2023-09-18T10:31:08;100041.31;;;14.16;77.26
74915;BME280;63475;45.140;-75.616;2023-09-18T10:33:13;100038.63;;;14.16;78.09